Weather History for KC09 - July, 2014

Change the Weather History Date:

Tuesday, July 1, 2014

  Actual Average (KLOT) Record (KLOT)
Temperature  
Mean Temperature 74 °F 74 °F  
Max Temperature 81 °F 84 °F 91 °F (2002)
Min Temperature 66 °F 64 °F 54 °F (2010)
Degree Days  
Heating Degree Days 0 0  
Month to date heating degree days 0  
Since 1 June heating degree days 33  
Since 1 July heating degree days 0  
Cooling Degree Days 8 9  
Month to date cooling degree days 9  
Year to date cooling degree days 247  
Since 1 June cooling degree days 189  
Growing Degree Days 24 (Base 50)    
Moisture  
Dew Point 66 °F    
Average Humidity 78    
Maximum Humidity 100    
Minimum Humidity 54    
Precipitation  
Precipitation 0.00 in 0.13 in 0.61 in (1999)
Month to date precipitation 0.13  
Year to date precipitation 19.17  
Sea Level Pressure  
Sea Level Pressure 29.75 in    
Wind  
Wind Speed 10 mph (WSW)    
Max Wind Speed 18 mph    
Max Gust Speed 24 mph    
Visibility 10 miles    
Events Rain , Thunderstorm    
T = Trace of Precipitation, MM = Missing Value Source: NWS Daily Summary

Daily Weather History Graph

Daily Weather History Graph

Search for Another Location

Airport or City:

Trip Planner

Search our weather history database for the weather conditions in past years. The results will help you decide how hot, cold, wet, or windy it might be!

Date:

Astronomy

Jul. 01, 2014 Rise Set
Actual Time 5:23 AM CDT 8:31 PM CDT
Civil Twilight 4:50 AM CDT 9:04 PM CDT
Nautical Twilight 4:06 AM CDT 9:48 PM CDT
Astronomical Twilight 3:15 AM CDT 10:39 PM CDT
Moon 9:34 AM CDT (7/1) 10:51 PM CDT (7/1)
Length of Visible Light 16h 14m
Length of Day
15h 07m
Waxing Crescent, 17% of the Moon is Illuminated
Jul 1
Waxing Crescent
Jul 5
First Quarter
Jul 12
Full
Jul 18
Last Quarter
Jul 26
New

Hourly Weather History & Observations

Time (CDT) Temp. Heat Index Dew Point Humidity Pressure Visibility Wind Dir Wind Speed Gust Speed Precip Events Conditions
12:15 AM 66.2 °F - 66.2 °F 100% 29.73 in 10.0 mi SSE 10.4 mph 18.4 mph N/A Rain , Thunderstorm Light Thunderstorms and Rain
12:35 AM 66.4 °F - 66.4 °F 100% 29.76 in 10.0 mi South 9.2 mph - N/A Rain Rain
12:55 AM 66.2 °F - 66.2 °F 100% 29.67 in 10.0 mi SE 13.8 mph - N/A Rain Light Rain
1:15 AM 66.7 °F - 66.7 °F 100% 29.73 in 10.0 mi SSW 13.8 mph 21.9 mph N/A   Scattered Clouds
1:35 AM 66.2 °F - 66.2 °F 100% 29.72 in 10.0 mi South 8.1 mph - N/A   Mostly Cloudy
1:55 AM 66.4 °F - 66.4 °F 100% 29.68 in 10.0 mi South 6.9 mph - N/A   Mostly Cloudy
2:15 AM 66.2 °F - 66.2 °F 100% 29.68 in 10.0 mi South 6.9 mph - N/A   Overcast
2:35 AM 66.2 °F - 66.2 °F 100% 29.68 in 10.0 mi South 9.2 mph - N/A   Overcast
2:55 AM 66.4 °F - 66.4 °F 100% 29.69 in 10.0 mi South 8.1 mph - N/A   Overcast
3:15 AM 66.6 °F - 66.6 °F 100% 29.69 in 10.0 mi SSW 10.4 mph - N/A   Overcast
3:35 AM 66.9 °F - 66.9 °F 100% 29.70 in 10.0 mi SSW 8.1 mph - N/A   Overcast
3:55 AM 67.1 °F - 67.1 °F 100% 29.70 in 10.0 mi SW 5.8 mph - N/A   Overcast
4:10 AM 67.5 °F - 67.5 °F 100% 29.72 in 10.0 mi SSW 5.8 mph - N/A   Overcast
4:35 AM 68.0 °F - 68.0 °F 100% 29.72 in 7.0 mi SW 5.8 mph - N/A   Unknown
4:55 AM 68.2 °F - 68.2 °F 100% 29.72 in 10.0 mi SW 6.9 mph - N/A   Overcast
5:15 AM 68.2 °F - 68.2 °F 100% 29.72 in 10.0 mi SSW 5.8 mph - N/A   Overcast
5:35 AM 68.0 °F - 68.0 °F 100% 29.72 in 10.0 mi SSW 5.8 mph - N/A   Overcast
5:55 AM 68.0 °F - 68.0 °F 100% 29.73 in 10.0 mi SW 6.9 mph - N/A   Mostly Cloudy
6:35 AM 68.4 °F - 68.4 °F 100% 29.75 in 10.0 mi WSW 6.9 mph - N/A   Mostly Cloudy
6:55 AM 68.9 °F - 68.9 °F 100% 29.75 in 10.0 mi SW 11.5 mph - N/A   Mostly Cloudy
7:15 AM 69.4 °F - 69.4 °F 100% 29.74 in 10.0 mi SW 9.2 mph - N/A   Scattered Clouds
7:35 AM 70.3 °F - 69.4 °F 97% 29.75 in 10.0 mi SW 8.1 mph - N/A   Scattered Clouds
7:55 AM 71.1 °F - 69.1 °F 93% 29.75 in 10.0 mi SW 6.9 mph - N/A   Clear
8:15 AM 72.0 °F - 68.4 °F 88% 29.76 in 10.0 mi WSW 9.2 mph - N/A   Clear
8:35 AM 72.9 °F - 68.2 °F 85% 29.77 in 10.0 mi WSW 9.2 mph 17.3 mph N/A   Clear
8:55 AM 73.8 °F - 66.9 °F 79% 29.78 in 10.0 mi West 15.0 mph 19.6 mph N/A   Clear
9:15 AM 74.5 °F - 66.7 °F 77% 29.78 in 10.0 mi WSW 12.7 mph 18.4 mph N/A   Clear
9:35 AM 75.4 °F - 67.6 °F 77% 29.78 in 10.0 mi West 15.0 mph 19.6 mph N/A   Clear
9:55 AM 75.7 °F - 66.4 °F 73% 29.77 in 10.0 mi West 13.8 mph 17.3 mph N/A   Clear
10:15 AM 76.5 °F - 64.9 °F 67% 29.78 in 10.0 mi West 15.0 mph 21.9 mph N/A   Clear
10:35 AM 76.6 °F - 63.9 °F 65% 29.77 in 10.0 mi West 18.4 mph 24.2 mph N/A   Clear
10:55 AM 77.2 °F - 63.1 °F 62% 29.76 in 10.0 mi West 16.1 mph 20.7 mph N/A   Clear
11:15 AM 77.9 °F - 64.9 °F 64% 29.76 in 10.0 mi West 16.1 mph - N/A   Clear
11:35 AM 78.1 °F - 63.0 °F 60% 29.75 in 10.0 mi West 17.3 mph 23.0 mph N/A   Clear
11:55 AM 78.8 °F - 64.4 °F 61% 29.75 in 10.0 mi West 11.5 mph - N/A   Clear
12:15 PM 79.2 °F - 63.5 °F 59% 29.74 in 10.0 mi West 12.7 mph - N/A   Clear
12:35 PM 79.7 °F - 63.7 °F 58% 29.74 in 10.0 mi West 11.5 mph 16.1 mph N/A   Clear
12:55 PM 79.5 °F - 63.3 °F 58% 29.76 in 10.0 mi West 15.0 mph - N/A   Clear
1:15 PM 79.7 °F - 63.3 °F 57% 29.77 in 10.0 mi West 10.4 mph 19.6 mph N/A   Clear
1:35 PM 79.9 °F - 62.8 °F 56% 29.77 in 10.0 mi West 15.0 mph 21.9 mph N/A   Clear
1:55 PM 80.6 °F 82.0 °F 63.5 °F 56% 29.76 in 10.0 mi West 15.0 mph - N/A   Clear
2:15 PM 80.6 °F 82.2 °F 63.9 °F 57% 29.77 in 10.0 mi SW 13.8 mph 21.9 mph N/A   Scattered Clouds
2:35 PM 80.6 °F 82.0 °F 63.7 °F 56% 29.78 in 10.0 mi WSW 12.7 mph 21.9 mph N/A   Clear
2:55 PM 81.0 °F 82.5 °F 63.9 °F 56% 29.78 in 10.0 mi West 18.4 mph 24.2 mph N/A   Scattered Clouds
3:15 PM 81.1 °F 82.5 °F 63.3 °F 55% 29.78 in 10.0 mi WSW 18.4 mph 24.2 mph N/A   Scattered Clouds
3:35 PM 80.6 °F 82.2 °F 64.0 °F 57% 29.78 in 10.0 mi WSW 16.1 mph 20.7 mph N/A   Scattered Clouds
3:55 PM 80.6 °F 81.8 °F 62.6 °F 54% 29.78 in 10.0 mi WSW 15.0 mph - N/A   Scattered Clouds
4:15 PM 79.9 °F - 64.0 °F 58% 29.78 in 10.0 mi WSW 15.0 mph 24.2 mph N/A   Clear
4:35 PM 79.5 °F - 64.0 °F 59% 29.78 in 10.0 mi WSW 15.0 mph 23.0 mph N/A   Scattered Clouds
4:55 PM 80.1 °F 81.7 °F 64.0 °F 58% 29.78 in 10.0 mi West 17.3 mph 21.9 mph N/A   Scattered Clouds
5:15 PM 79.7 °F - 63.3 °F 57% 29.77 in 10.0 mi WSW 15.0 mph 21.9 mph N/A   Scattered Clouds
5:35 PM 80.6 °F 82.3 °F 64.4 °F 58% 29.76 in 10.0 mi West 16.1 mph 23.0 mph N/A   Scattered Clouds
5:55 PM 79.9 °F - 64.0 °F 58% 29.76 in 10.0 mi West 12.7 mph 18.4 mph N/A   Clear
6:15 PM 79.5 °F - 63.3 °F 58% 29.76 in 10.0 mi West 15.0 mph - N/A   Clear
6:35 PM 79.2 °F - 63.3 °F 58% 29.75 in 10.0 mi West 11.5 mph 17.3 mph N/A   Clear
6:55 PM 78.4 °F - 63.7 °F 60% 29.75 in 10.0 mi West 9.2 mph - N/A   Clear
7:10 PM 78.1 °F - 64.6 °F 63% 29.75 in 10.0 mi West 8.1 mph - N/A   Clear
7:35 PM 76.6 °F - 65.3 °F 68% 29.75 in 10.0 mi West 5.8 mph - N/A   Unknown
7:55 PM 75.7 °F - 65.3 °F 70% 29.76 in 10.0 mi WSW 6.9 mph - N/A   Clear
8:15 PM 74.1 °F - 65.3 °F 74% 29.77 in 10.0 mi SW 5.8 mph - N/A   Clear
8:35 PM 72.0 °F - 65.8 °F 81% 29.77 in 10.0 mi SW 4.6 mph - N/A   Clear
8:55 PM 72.5 °F - 64.8 °F 77% 29.77 in 10.0 mi WSW 4.6 mph - N/A   Clear
9:15 PM 71.1 °F - 64.8 °F 80% 29.77 in 10.0 mi WSW 3.5 mph - N/A   Clear
9:35 PM 70.0 °F - 64.6 °F 83% 29.78 in 10.0 mi SW 3.5 mph - N/A   Clear
9:55 PM 68.9 °F - 64.6 °F 86% 29.78 in 10.0 mi South 4.6 mph - N/A   Clear
10:15 PM 69.8 °F - 65.3 °F 86% 29.78 in 10.0 mi SSW 5.8 mph - N/A   Clear
10:35 PM 70.2 °F - 66.0 °F 87% 29.79 in 10.0 mi SSW 5.8 mph - N/A   Clear
10:55 PM 70.5 °F - 66.4 °F 87% 29.80 in 10.0 mi WNW 6.9 mph - N/A   Mostly Cloudy
11:15 PM 70.3 °F - 65.3 °F 84% 29.80 in 10.0 mi West 8.1 mph - N/A   Overcast
11:35 PM 69.8 °F - 64.4 °F 83% 29.81 in 10.0 mi West 8.1 mph - N/A   Overcast
11:55 PM 69.8 °F - 64.4 °F 83% 29.82 in 10.0 mi West 10.4 mph - N/A   Overcast